Time;durP1;ratioP1;P1;durP2;ratioP2;P2;SDS_P1;SDS_P2;PMS_P1;PMS_P2;Temp;Humidity;BMP_temperature;BMP_pressure;BME280_temperature;BME280_humidity;BME280_pressure;Samples;Min_cycle;Max_cycle;Signal;HPM_P1;HPM_P2
2024/03/23 00:01:05;;;;;;;23.80;7.82;;;8.10;99.90;;;;;;6145763;23;20482;-76
2024/03/23 00:03:34;;;;;;;20.90;7.07;;;8.10;99.90;;;;;;6112762;23;20020;-77
2024/03/23 00:06:01;;;;;;;22.10;6.82;;;8.10;99.90;;;;;;6135438;23;20013;-77
2024/03/23 00:08:29;;;;;;;18.38;7.10;;;8.10;99.90;;;;;;6086892;23;20020;-77
2024/03/23 00:10:57;;;;;;;15.10;5.97;;;8.10;99.90;;;;;;6087649;23;20024;-76
2024/03/23 00:13:24;;;;;;;16.60;6.07;;;8.10;99.90;;;;;;6063827;23;20009;-77
2024/03/23 00:15:52;;;;;;;20.02;6.32;;;8.00;99.90;;;;;;6121279;23;20001;-77
2024/03/23 00:18:23;;;;;;;16.50;6.10;;;8.10;99.90;;;;;;6136341;23;20009;-77
2024/03/23 00:20:54;;;;;;;21.77;6.57;;;8.00;99.90;;;;;;6109835;23;20417;-77
2024/03/23 00:23:22;;;;;;;20.17;5.10;;;8.00;99.90;;;;;;6065496;23;20311;-76
2024/03/23 00:25:50;;;;;;;16.60;5.80;;;8.00;99.90;;;;;;6110529;23;20468;-76
2024/03/23 00:28:17;;;;;;;17.27;5.85;;;8.00;99.90;;;;;;6087402;23;20445;-77
2024/03/23 00:30:45;;;;;;;16.92;5.40;;;8.00;99.90;;;;;;6109508;23;20718;-77
2024/03/23 00:33:13;;;;;;;23.58;7.43;;;8.00;99.90;;;;;;6122459;23;20017;-76
2024/03/23 00:35:40;;;;;;;20.00;5.93;;;8.00;99.90;;;;;;6087100;23;20465;-77
2024/03/23 00:38:08;;;;;;;17.92;5.88;;;8.00;99.90;;;;;;6173612;23;20512;-77
2024/03/23 00:40:36;;;;;;;17.52;5.85;;;8.00;99.90;;;;;;6171999;23;20012;-77
2024/03/23 00:43:03;;;;;;;23.30;6.35;;;8.00;99.90;;;;;;6111852;23;20013;-78
2024/03/23 00:45:30;;;;;;;19.02;6.80;;;7.90;99.90;;;;;;6111222;23;20718;-77
2024/03/23 00:47:58;;;;;;;21.58;7.05;;;7.90;99.90;;;;;;6086984;23;20019;-77
2024/03/23 00:50:25;;;;;;;23.83;7.57;;;7.90;99.90;;;;;;6086724;23;20008;-77
2024/03/23 00:52:53;;;;;;;14.13;6.07;;;7.90;99.90;;;;;;6063513;23;20019;-77
2024/03/23 00:55:19;;;;;;;20.42;8.10;;;7.90;99.90;;;;;;6087390;23;20005;-78
2024/03/23 00:57:45;;;;;;;19.33;5.57;;;7.90;99.90;;;;;;6087566;23;20005;-78
2024/03/23 01:00:12;;;;;;;17.48;5.93;;;7.90;99.90;;;;;;6086884;23;20016;-78
2024/03/23 01:02:38;;;;;;;17.00;6.13;;;7.90;99.90;;;;;;6138522;23;20020;-78
2024/03/23 01:05:05;;;;;;;13.25;5.30;;;7.90;99.90;;;;;;6085492;23;20446;-78
2024/03/23 01:07:31;;;;;;;19.73;7.82;;;7.90;99.90;;;;;;6143051;23;20853;-78
2024/03/23 01:09:58;;;;;;;23.00;8.15;;;7.90;99.90;;;;;;6111127;23;20048;-78
2024/03/23 01:12:24;;;;;;;22.98;7.63;;;7.90;99.90;;;;;;6134456;23;20020;-78
2024/03/23 01:14:52;;;;;;;27.45;8.98;;;7.90;99.90;;;;;;6134529;23;20032;-77
2024/03/23 01:17:18;;;;;;;22.52;8.35;;;7.80;99.90;;;;;;6169944;23;20005;-78
2024/03/23 01:19:44;;;;;;;25.42;8.88;;;7.80;99.90;;;;;;6144155;23;20605;-78
2024/03/23 01:22:11;;;;;;;21.30;8.40;;;7.80;99.90;;;;;;6109779;23;20021;-78
2024/03/23 01:24:37;;;;;;;22.00;7.90;;;7.80;99.90;;;;;;6171519;23;20015;-77
2024/03/23 01:27:04;;;;;;;23.30;9.63;;;7.80;99.90;;;;;;6170639;23;20445;-78
2024/03/23 01:29:30;;;;;;;21.92;8.23;;;7.80;99.90;;;;;;6106970;23;20021;-78
2024/03/23 01:31:57;;;;;;;23.25;10.30;;;7.80;99.90;;;;;;6109151;23;20024;-78
2024/03/23 01:34:24;;;;;;;21.15;10.43;;;7.80;99.90;;;;;;6110604;23;20016;-77
2024/03/23 01:36:51;;;;;;;26.23;10.40;;;7.80;99.90;;;;;;6143709;23;20008;-78
2024/03/23 01:39:17;;;;;;;22.17;9.77;;;7.80;99.90;;;;;;6135206;23;20009;-78
2024/03/23 01:41:44;;;;;;;19.73;8.65;;;7.80;99.90;;;;;;6144597;23;20363;-78
2024/03/23 01:44:11;;;;;;;24.98;10.18;;;7.80;99.90;;;;;;6086218;23;20013;-78
2024/03/23 01:46:38;;;;;;;27.75;11.20;;;7.70;99.90;;;;;;6143756;23;20366;-78
2024/03/23 01:49:08;;;;;;;30.30;11.60;;;7.70;99.90;;;;;;6120770;23;20013;-78
2024/03/23 01:51:35;;;;;;;26.70;9.63;;;7.70;99.90;;;;;;6110175;23;20009;-78
2024/03/23 01:54:03;;;;;;;23.13;9.80;;;7.70;99.90;;;;;;6087532;23;20016;-78
2024/03/23 01:56:36;;;;;;;27.35;10.82;;;7.70;99.90;;;;;;6110782;23;20903;-77
2024/03/23 01:59:05;;;;;;;;;;;7.70;99.90;;;;;;6146750;23;20005;-78
2024/03/23 02:01:32;;;;;;;20.65;8.27;;;7.70;99.90;;;;;;6111085;23;19911;-78
2024/03/23 02:03:59;;;;;;;32.90;11.20;;;7.70;99.90;;;;;;6147050;23;20001;-78
2024/03/23 02:06:25;;;;;;;27.63;10.68;;;7.70;99.90;;;;;;6145917;23;20012;-77
2024/03/23 02:08:52;;;;;;;24.33;10.15;;;7.70;99.90;;;;;;6136501;23;20021;-78
2024/03/23 02:11:18;;;;;;;25.02;10.18;;;7.70;99.90;;;;;;6110607;23;20013;-78
2024/03/23 02:13:44;;;;;;;25.17;10.65;;;7.80;99.90;;;;;;6146756;23;20005;-78
2024/03/23 02:16:13;;;;;;;21.23;9.40;;;7.80;99.90;;;;;;6173945;23;20253;-78
2024/03/23 02:18:39;;;;;;;27.52;9.13;;;7.80;99.90;;;;;;6139072;23;20013;-78
2024/03/23 02:21:05;;;;;;;27.55;12.45;;;7.70;99.90;;;;;;6113766;23;20013;-78
2024/03/23 02:23:32;;;;;;;27.83;11.13;;;7.70;99.90;;;;;;6175996;23;20009;-77
2024/03/23 02:25:58;;;;;;;24.05;9.15;;;7.70;99.90;;;;;;6138379;23;20009;-77
2024/03/23 02:28:25;;;;;;;21.48;10.10;;;7.70;99.90;;;;;;6124376;23;20009;-78
2024/03/23 02:30:52;;;;;;;28.38;10.63;;;7.70;99.90;;;;;;6147743;23;20013;-78
2024/03/23 02:33:18;;;;;;;23.15;10.10;;;7.70;99.90;;;;;;6090566;23;20032;-78
2024/03/23 02:35:47;;;;;;;25.55;10.13;;;7.70;99.90;;;;;;6113150;23;20097;-78
2024/03/23 02:38:13;;;;;;;21.58;9.38;;;7.70;99.90;;;;;;6148573;23;20009;-78
2024/03/23 02:40:40;;;;;;;23.83;10.75;;;7.60;99.90;;;;;;6147034;23;20005;-78
2024/03/23 02:43:06;;;;;;;24.23;9.02;;;7.60;99.90;;;;;;6139133;23;20013;-78
2024/03/23 02:45:33;;;;;;;22.95;8.45;;;7.50;99.90;;;;;;6124278;23;20315;-77
2024/03/23 02:47:59;;;;;;;19.63;9.38;;;7.50;99.90;;;;;;6148757;23;20066;-79
2024/03/23 02:50:26;;;;;;;21.77;9.98;;;7.40;99.90;;;;;;6113573;23;20454;-78
2024/03/23 02:52:52;;;;;;;20.70;9.77;;;7.30;99.90;;;;;;6091443;23;20016;-78
2024/03/23 02:55:18;;;;;;;26.40;11.52;;;7.20;99.90;;;;;;6114134;23;20016;-78
2024/03/23 02:57:45;;;;;;;27.63;9.68;;;7.10;99.90;;;;;;6089506;23;20013;-78
2024/03/23 03:00:12;;;;;;;22.88;10.07;;;7.10;99.90;;;;;;6088630;23;20043;-78
2024/03/23 03:02:39;;;;;;;24.05;10.52;;;7.10;99.90;;;;;;6113100;23;20016;-77
2024/03/23 03:05:06;;;;;;;23.73;11.75;;;7.00;99.90;;;;;;6124393;23;20725;-77
2024/03/23 03:07:32;;;;;;;19.80;9.85;;;7.00;99.90;;;;;;6113693;23;20336;-78
2024/03/23 03:09:59;;;;;;;20.58;9.40;;;6.90;99.90;;;;;;6138312;23;20354;-77
2024/03/23 03:12:25;;;;;;;22.27;10.10;;;7.00;99.90;;;;;;6090181;23;20678;-77
2024/03/23 03:14:51;;;;;;;22.92;11.02;;;7.00;99.90;;;;;;6138647;23;20469;-77
2024/03/23 03:17:19;;;;;;;23.63;11.65;;;6.90;99.90;;;;;;6125117;23;20005;-77
2024/03/23 03:19:45;;;;;;;25.17;11.73;;;6.90;99.90;;;;;;6114716;23;20013;-77
2024/03/23 03:22:12;;;;;;;20.40;10.15;;;6.80;99.90;;;;;;6114333;23;20020;-77
2024/03/23 03:24:38;;;;;;;24.05;10.93;;;6.80;99.90;;;;;;6089991;23;20016;-77
2024/03/23 03:27:06;;;;;;;25.50;11.68;;;6.70;99.90;;;;;;6148194;23;20004;-77
2024/03/23 03:29:35;;;;;;;25.35;12.48;;;6.70;99.90;;;;;;6119525;23;20013;-77
2024/03/23 03:32:02;;;;;;;24.42;11.88;;;6.60;99.90;;;;;;6114497;23;20023;-78
2024/03/23 03:34:29;;;;;;;20.80;10.77;;;6.60;99.90;;;;;;6090729;23;20059;-76
2024/03/23 03:36:57;;;;;;;28.40;12.20;;;6.60;99.90;;;;;;6138005;23;20012;-76
2024/03/23 03:39:24;;;;;;;26.15;13.90;;;6.50;99.90;;;;;;6090241;23;20012;-77
2024/03/23 03:41:50;;;;;;;30.92;14.05;;;6.50;99.90;;;;;;6114522;23;20020;-77
2024/03/23 03:44:17;;;;;;;31.23;13.82;;;6.40;99.90;;;;;;6149208;23;20012;-77
2024/03/23 03:46:44;;;;;;;30.17;13.88;;;6.40;99.90;;;;;;6088056;23;20005;-77
2024/03/23 03:49:10;;;;;;;30.45;13.10;;;6.40;99.90;;;;;;6114413;23;20346;-78
2024/03/23 03:51:36;;;;;;;24.65;11.20;;;6.40;99.90;;;;;;6138432;23;20009;-78
2024/03/23 03:54:03;;;;;;;29.65;12.63;;;6.40;99.90;;;;;;6150456;23;20031;-78
2024/03/23 03:56:29;;;;;;;23.83;10.95;;;6.40;99.90;;;;;;6137698;23;20006;-77
2024/03/23 03:58:56;;;;;;;21.58;11.25;;;6.30;99.90;;;;;;6091184;23;20650;-77
2024/03/23 04:01:22;;;;;;;24.33;10.43;;;6.30;99.90;;;;;;6113349;23;20049;-77
2024/03/23 04:03:48;;;;;;;31.70;12.65;;;6.30;99.90;;;;;;6149219;23;20005;-77
2024/03/23 04:06:21;;;;;;;25.42;10.60;;;6.30;99.90;;;;;;6113067;23;20012;-78
2024/03/23 04:08:48;;;;;;;27.92;13.02;;;6.20;99.90;;;;;;6090496;23;20013;-78
2024/03/23 04:11:14;;;;;;;20.80;9.70;;;6.20;99.90;;;;;;6147382;23;20005;-77
2024/03/23 04:13:41;;;;;;;31.35;11.85;;;6.10;99.90;;;;;;6124589;23;20013;-77
2024/03/23 04:16:09;;;;;;;28.80;11.75;;;6.10;99.90;;;;;;6089379;23;20012;-77
2024/03/23 04:18:35;;;;;;;25.42;11.13;;;6.00;99.90;;;;;;6115254;23;20017;-77
2024/03/23 04:21:02;;;;;;;22.33;10.65;;;6.00;99.90;;;;;;6138955;23;20792;-77
2024/03/23 04:23:28;;;;;;;20.23;9.60;;;6.00;99.90;;;;;;6126090;23;20526;-77
2024/03/23 04:25:54;;;;;;;19.70;9.57;;;5.90;99.90;;;;;;6114291;23;20534;-77
2024/03/23 04:28:22;;;;;;;24.25;11.70;;;5.90;99.90;;;;;;6174476;23;20009;-77
2024/03/23 04:30:48;;;;;;;20.55;9.93;;;5.80;99.90;;;;;;6137743;23;20468;-77
2024/03/23 04:33:15;;;;;;;18.60;9.65;;;5.80;99.90;;;;;;6090148;23;20012;-77
2024/03/23 04:35:41;;;;;;;25.13;9.65;;;5.80;99.90;;;;;;6136866;23;20199;-78
2024/03/23 04:38:07;;;;;;;16.83;8.30;;;5.80;99.90;;;;;;6114736;23;20511;-78
2024/03/23 04:40:34;;;;;;;21.15;9.15;;;5.80;99.90;;;;;;6113675;23;20051;-77
2024/03/23 04:43:01;;;;;;;21.45;9.43;;;5.70;99.90;;;;;;6114153;23;20013;-77
2024/03/23 04:45:27;;;;;;;21.33;8.93;;;5.70;99.90;;;;;;6113348;23;20008;-77
2024/03/23 04:47:54;;;;;;;27.95;9.93;;;5.60;99.90;;;;;;6090224;23;20301;-78
2024/03/23 04:50:20;;;;;;;15.75;8.10;;;5.60;99.90;;;;;;6113406;23;20473;-78
2024/03/23 04:52:47;;;;;;;19.30;9.48;;;5.60;99.90;;;;;;6124469;23;19997;-77
2024/03/23 04:55:14;;;;;;;21.33;8.40;;;5.60;99.90;;;;;;6174813;23;20012;-77
2024/03/23 04:57:40;;;;;;;16.83;6.85;;;5.50;99.90;;;;;;6123907;23;20013;-77
2024/03/23 05:00:16;;;;;;;17.67;7.47;;;5.50;99.90;;;;;;6137892;23;20449;-77
2024/03/23 05:02:44;;;;;;;17.38;7.90;;;5.40;99.90;;;;;;6113607;23;20043;-77
2024/03/23 05:05:12;;;;;;;17.50;6.75;;;5.40;99.90;;;;;;6147831;23;20013;-77
2024/03/23 05:07:41;;;;;;;17.90;6.65;;;5.40;99.90;;;;;;6147335;23;20009;-77
2024/03/23 05:10:11;;;;;;;11.93;6.47;;;5.30;99.90;;;;;;6113378;23;20017;-77
2024/03/23 05:12:38;;;;;;;15.63;5.97;;;5.30;99.90;;;;;;6112861;23;20012;-77
2024/03/23 05:15:05;;;;;;;13.73;5.57;;;5.30;99.90;;;;;;6149283;23;20001;-77
2024/03/23 05:17:32;;;;;;;16.52;5.93;;;5.20;99.90;;;;;;6112547;23;20024;-76
2024/03/23 05:19:59;;;;;;;13.98;5.57;;;5.20;99.90;;;;;;6088159;23;20020;-77
2024/03/23 05:22:27;;;;;;;16.95;5.80;;;5.20;99.90;;;;;;6174008;23;20001;-78
2024/03/23 05:24:54;;;;;;;15.73;5.35;;;5.20;99.90;;;;;;6090075;23;20009;-78
2024/03/23 05:27:20;;;;;;;15.15;5.50;;;5.20;99.90;;;;;;6112738;23;20012;-77
2024/03/23 05:29:47;;;;;;;14.20;6.20;;;5.30;99.90;;;;;;6088596;23;20028;-78
2024/03/23 05:32:13;;;;;;;14.35;5.80;;;5.40;99.90;;;;;;6147723;23;20013;-78
2024/03/23 05:34:40;;;;;;;16.95;6.38;;;5.50;99.90;;;;;;6089561;23;20016;-77
2024/03/23 05:37:07;;;;;;;19.52;6.47;;;5.50;99.90;;;;;;6112285;23;20004;-77
2024/03/23 05:39:34;;;;;;;14.80;4.78;;;5.60;99.90;;;;;;6089125;23;20009;-78
2024/03/23 05:42:00;;;;;;;20.35;6.82;;;5.70;99.90;;;;;;6112028;23;20016;-76
2024/03/23 05:44:27;;;;;;;22.77;6.95;;;5.70;99.90;;;;;;6149741;23;20004;-78
2024/03/23 05:46:53;;;;;;;16.58;5.55;;;5.70;99.90;;;;;;6147606;23;20416;-78
2024/03/23 05:49:21;;;;;;;13.73;4.38;;;5.70;99.90;;;;;;6089212;23;20024;-78
2024/03/23 05:51:47;;;;;;;15.15;3.97;;;5.60;99.90;;;;;;6123331;23;20334;-77
2024/03/23 05:54:14;;;;;;;14.55;4.80;;;5.60;99.90;;;;;;6113362;23;20024;-77
2024/03/23 05:56:41;;;;;;;12.82;4.07;;;5.50;99.90;;;;;;6112639;23;20021;-77
2024/03/23 05:59:07;;;;;;;11.35;3.42;;;5.50;99.90;;;;;;6089536;23;20009;-77
2024/03/23 06:01:34;;;;;;;12.15;4.45;;;5.40;99.90;;;;;;6146005;23;20013;-76
2024/03/23 06:04:01;;;;;;;13.18;3.90;;;5.40;99.90;;;;;;6113688;23;20005;-77
2024/03/23 06:06:30;;;;;;;10.43;3.67;;;5.40;99.90;;;;;;6147431;23;20008;-77
2024/03/23 06:08:56;;;;;;;17.88;5.30;;;5.40;99.90;;;;;;6147815;23;20019;-77
2024/03/23 06:11:23;;;;;;;13.07;3.63;;;5.50;99.90;;;;;;6147284;23;20016;-77
2024/03/23 06:13:49;;;;;;;12.52;4.53;;;5.50;99.90;;;;;;6148944;23;20005;-76
2024/03/23 06:16:15;;;;;;;12.60;4.30;;;5.60;99.90;;;;;;6137199;23;20017;-78
2024/03/23 06:18:42;;;;;;;19.90;5.40;;;5.60;99.90;;;;;;6149476;23;20540;-77
2024/03/23 06:21:13;;;;;;;15.07;4.75;;;5.70;99.90;;;;;;6148653;23;20005;-77
2024/03/23 06:23:41;;;;;;;17.92;5.25;;;5.80;99.90;;;;;;6091111;23;20016;-77
2024/03/23 06:26:08;;;;;;;12.85;3.70;;;5.90;99.90;;;;;;6124133;23;20461;-76
2024/03/23 06:28:35;;;;;;;16.88;4.18;;;6.00;99.90;;;;;;6090921;23;20009;-76
2024/03/23 06:31:02;;;;;;;18.25;4.60;;;6.10;99.90;;;;;;6137360;23;20528;-77
2024/03/23 06:33:28;;;;;;;13.35;3.05;;;6.10;99.90;;;;;;6138276;23;20008;-77
2024/03/23 06:35:55;;;;;;;12.80;3.58;;;6.30;99.90;;;;;;6146827;23;20005;-78
2024/03/23 06:38:21;;;;;;;12.45;3.28;;;6.30;99.90;;;;;;6148440;23;20426;-78
2024/03/23 06:40:50;;;;;;;11.43;3.97;;;6.40;99.90;;;;;;6122109;23;20350;-78
2024/03/23 06:43:17;;;;;;;12.32;2.90;;;6.50;99.90;;;;;;6148528;23;20013;-78
2024/03/23 06:45:43;;;;;;;17.52;4.53;;;6.60;99.90;;;;;;6111956;23;20476;-78
2024/03/23 06:48:09;;;;;;;17.25;3.25;;;6.70;99.90;;;;;;6113573;23;20774;-77
2024/03/23 06:50:36;;;;;;;22.40;6.45;;;6.80;99.90;;;;;;6113009;23;20368;-77
2024/03/23 06:53:05;;;;;;;12.07;4.38;;;7.00;99.90;;;;;;6115015;23;20354;-78
2024/03/23 06:55:31;;;;;;;12.93;3.80;;;7.30;99.90;;;;;;6113169;23;20017;-77
2024/03/23 06:57:58;;;;;;;9.18;2.30;;;7.40;99.90;;;;;;6088682;23;20028;-78
2024/03/23 07:00:25;;;;;;;17.30;2.90;;;7.40;99.90;;;;;;6148608;23;20316;-77
2024/03/23 07:02:52;;;;;;;8.80;1.80;;;7.30;99.90;;;;;;6141952;23;20009;-77
2024/03/23 07:05:18;;;;;;;18.08;2.45;;;7.20;99.90;;;;;;6115173;23;20351;-78
2024/03/23 07:07:45;;;;;;;9.02;2.28;;;7.20;99.90;;;;;;6113545;23;20012;-77
2024/03/23 07:10:11;;;;;;;14.50;1.85;;;7.20;99.90;;;;;;6150337;23;20021;-77
2024/03/23 07:12:38;;;;;;;14.32;2.63;;;7.30;99.90;;;;;;6115658;23;20450;-78
2024/03/23 07:15:04;;;;;;;13.88;3.50;;;7.40;99.90;;;;;;6126327;23;20004;-77
2024/03/23 07:17:32;;;;;;;10.80;2.45;;;7.30;99.90;;;;;;6090381;23;20013;-77
2024/03/23 07:20:01;;;;;;;14.65;3.42;;;7.40;99.90;;;;;;6140107;23;20009;-77
2024/03/23 07:22:27;;;;;;;14.70;2.20;;;7.40;99.90;;;;;;6150291;23;20001;-79
2024/03/23 07:24:53;;;;;;;11.48;1.90;;;7.50;99.90;;;;;;6115899;23;20024;-79
2024/03/23 07:27:20;;;;;;;13.93;2.00;;;7.60;99.90;;;;;;6176309;23;20370;-79
2024/03/23 07:29:47;;;;;;;11.32;2.60;;;7.80;99.90;;;;;;6115560;23;20013;-80
2024/03/23 07:32:13;;;;;;;9.82;2.05;;;7.90;99.90;;;;;;6114553;23;20016;-79
2024/03/23 07:34:40;;;;;;;14.07;2.00;;;8.00;99.90;;;;;;6116089;23;20246;-79
2024/03/23 07:37:06;;;;;;;13.35;2.50;;;8.10;99.90;;;;;;6114808;23;20457;-78
2024/03/23 07:39:33;;;;;;;12.52;2.45;;;8.10;99.90;;;;;;6140196;23;20472;-79
2024/03/23 07:42:00;;;;;;;13.50;2.28;;;8.30;99.90;;;;;;6149487;23;20433;-78
2024/03/23 07:44:26;;;;;;;11.75;2.50;;;8.50;99.90;;;;;;6116129;23;20017;-78
2024/03/23 07:46:53;;;;;;;15.00;3.08;;;8.60;99.90;;;;;;6114555;23;20551;-78
2024/03/23 07:49:19;;;;;;;12.07;2.35;;;8.70;99.90;;;;;;6151395;23;20005;-77
2024/03/23 07:51:46;;;;;;;10.20;2.55;;;8.80;99.90;;;;;;6089817;23;20013;-76
2024/03/23 07:54:12;;;;;;;9.43;2.20;;;8.80;99.90;;;;;;6116042;23;20009;-76
2024/03/23 07:56:38;;;;;;;12.65;3.17;;;9.00;99.90;;;;;;6148982;23;20128;-76
2024/03/23 07:59:05;;;;;;;13.18;3.00;;;9.10;99.90;;;;;;6091319;23;20827;-77
2024/03/23 08:01:31;;;;;;;11.10;3.80;;;9.20;99.90;;;;;;6113029;23;20021;-77
2024/03/23 08:03:58;;;;;;;13.60;3.65;;;9.30;99.90;;;;;;6125294;23;19997;-77
2024/03/23 08:06:24;;;;;;;11.95;2.53;;;9.40;99.90;;;;;;6124124;23;20448;-78
2024/03/23 08:08:59;;;;;;;16.92;3.03;;;9.50;99.90;;;;;;6113383;23;20009;-78
2024/03/23 08:11:30;;;;;;;16.08;3.90;;;9.50;99.90;;;;;;6148621;23;20032;-78
2024/03/23 08:13:57;;;;;;;12.23;2.60;;;9.50;99.90;;;;;;6115400;23;20470;-77
2024/03/23 08:16:24;;;;;;;11.32;3.05;;;9.40;99.90;;;;;;6177150;23;20334;-78
2024/03/23 08:18:57;;;;;;;12.30;2.00;;;9.40;99.90;;;;;;6151472;23;20753;-78
2024/03/23 08:21:25;;;;;;;;;;;9.40;99.90;;;;;;6090558;23;20016;-78
2024/03/23 08:23:51;;;;;;;13.45;2.35;;;9.40;99.90;;;;;;6126697;23;20067;-77
2024/03/23 08:26:18;;;;;;;15.40;3.05;;;9.40;99.90;;;;;;6176709;23;20005;-77
2024/03/23 08:28:44;;;;;;;15.13;2.30;;;9.30;99.90;;;;;;6091346;23;20619;-77
2024/03/23 08:31:12;;;;;;;11.27;1.95;;;9.30;99.90;;;;;;6138876;23;20020;-77
2024/03/23 08:33:39;;;;;;;10.65;1.80;;;9.30;99.90;;;;;;6115794;23;20016;-77
2024/03/23 08:36:07;;;;;;;13.20;2.25;;;9.40;99.90;;;;;;6113901;23;20008;-79
2024/03/23 08:38:34;;;;;;;14.63;1.40;;;9.40;99.90;;;;;;6114738;23;20013;-78
2024/03/23 08:41:09;;;;;;;11.52;1.50;;;9.50;99.90;;;;;;6175626;23;20005;-79
2024/03/23 08:43:37;;;;;;;7.97;1.20;;;9.60;99.90;;;;;;6090632;23;20096;-78
2024/03/23 08:46:06;;;;;;;13.95;1.85;;;9.60;99.90;;;;;;6123549;23;20801;-80
2024/03/23 08:48:40;;;;;;;15.57;2.20;;;9.60;99.90;;;;;;6114197;23;20012;-79
2024/03/23 08:51:08;;;;;;;9.80;1.30;;;9.50;99.90;;;;;;6089920;23;20017;-79
2024/03/23 08:53:39;;;;;;;7.90;0.95;;;9.50;99.90;;;;;;6138707;23;20005;-81
2024/03/23 08:56:06;;;;;;;12.98;1.77;;;9.50;99.90;;;;;;6148391;23;20008;-79
2024/03/23 08:58:34;;;;;;;10.40;1.15;;;9.60;99.90;;;;;;6175041;23;20005;-78
2024/03/23 09:01:07;;;;;;;16.80;2.20;;;9.60;99.90;;;;;;6147196;23;20008;-79
2024/03/23 09:03:34;;;;;;;;;;;9.60;99.90;;;;;;6090440;23;20350;-79
2024/03/23 09:06:00;;;;;;;3.47;0.50;;;9.30;99.90;;;;;;6088009;23;19912;-79
2024/03/23 09:08:27;;;;;;;8.85;1.20;;;8.70;99.90;;;;;;6123942;23;20012;-77
2024/03/23 09:10:54;;;;;;;8.32;1.02;;;8.20;99.90;;;;;;6088183;23;20346;-79
2024/03/23 09:13:21;;;;;;;10.32;1.58;;;7.80;99.90;;;;;;6113661;23;20009;-80
2024/03/23 09:15:51;;;;;;;7.57;0.90;;;7.60;99.90;;;;;;6147595;23;20012;-79
2024/03/23 09:18:18;;;;;;;7.47;0.88;;;7.40;99.90;;;;;;6138012;23;20009;-79
2024/03/23 09:20:44;;;;;;;7.18;1.10;;;7.40;99.90;;;;;;6148906;23;20937;-78
2024/03/23 09:23:13;;;;;;;6.72;0.80;;;7.40;99.90;;;;;;6114460;23;20013;-80
2024/03/23 09:25:40;;;;;;;8.10;1.15;;;7.40;99.90;;;;;;6123640;23;20005;-80
2024/03/23 09:28:08;;;;;;;7.50;1.38;;;7.40;99.90;;;;;;6114284;23;20526;-77
2024/03/23 09:30:36;;;;;;;9.88;1.25;;;7.40;99.90;;;;;;6138982;23;20020;-79
2024/03/23 09:33:03;;;;;;;8.82;1.33;;;7.30;99.90;;;;;;6124722;23;20009;-79
2024/03/23 09:35:30;;;;;;;6.32;1.40;;;7.20;99.90;;;;;;6115446;23;20489;-78
2024/03/23 09:37:57;;;;;;;6.13;0.70;;;7.30;99.90;;;;;;6139031;23;20016;-78
2024/03/23 09:40:23;;;;;;;10.68;1.75;;;7.60;99.90;;;;;;6124556;23;20017;-79
2024/03/23 09:42:50;;;;;;;6.28;0.82;;;7.80;99.90;;;;;;6148098;23;20527;-78
2024/03/23 09:45:21;;;;;;;6.13;0.93;;;8.10;99.90;;;;;;6113626;23;20020;-79
2024/03/23 09:47:48;;;;;;;7.28;1.00;;;8.30;99.90;;;;;;6088693;23;20442;-79
2024/03/23 09:50:15;;;;;;;8.90;1.70;;;8.40;99.90;;;;;;6088564;23;20349;-79
2024/03/23 09:52:41;;;;;;;8.98;0.88;;;8.70;99.90;;;;;;6087536;23;20013;-79
2024/03/23 09:55:10;;;;;;;11.20;1.63;;;8.80;99.90;;;;;;6125296;23;20727;-80
2024/03/23 09:57:37;;;;;;;8.95;1.20;;;9.00;99.90;;;;;;6089610;23;20005;-79
2024/03/23 10:00:04;;;;;;;5.25;1.05;;;9.10;99.90;;;;;;6148575;23;20020;-81
2024/03/23 10:02:34;;;;;;;6.90;1.45;;;9.40;99.90;;;;;;6114015;23;20028;-80
2024/03/23 10:05:01;;;;;;;8.57;1.23;;;9.60;99.90;;;;;;6089919;23;20001;-79
2024/03/23 10:07:28;;;;;;;8.13;1.33;;;10.00;99.90;;;;;;6122677;23;20015;-80
2024/03/23 10:09:55;;;;;;;5.15;1.17;;;10.10;99.90;;;;;;6137591;23;20044;-80
2024/03/23 10:12:23;;;;;;;6.65;0.80;;;10.10;99.90;;;;;;6089065;23;20052;-79
2024/03/23 10:14:50;;;;;;;8.02;1.15;;;9.90;99.90;;;;;;6089972;23;20009;-81
2024/03/23 10:17:17;;;;;;;11.90;1.00;;;9.60;99.90;;;;;;6113339;23;20009;-79
2024/03/23 10:19:49;;;;;;;7.47;0.80;;;9.30;99.90;;;;;;6090022;23;20342;-79
2024/03/23 10:22:21;;;;;;;5.77;0.60;;;8.90;99.90;;;;;;6089115;23;20626;-78
2024/03/23 10:24:48;;;;;;;5.80;0.60;;;8.60;99.90;;;;;;6174642;23;20005;-78
2024/03/23 10:27:21;;;;;;;3.92;0.57;;;8.30;99.90;;;;;;6123794;23;20005;-81
2024/03/23 10:29:49;;;;;;;7.93;0.80;;;8.30;99.90;;;;;;6113178;23;20017;-79
2024/03/23 10:32:17;;;;;;;7.00;1.00;;;8.30;99.90;;;;;;6174355;23;20009;-79
2024/03/23 10:34:45;;;;;;;9.77;1.13;;;8.40;99.90;;;;;;6089530;23;20009;-79
2024/03/23 10:37:12;;;;;;;9.73;1.05;;;8.30;99.90;;;;;;6175556;23;20005;-80
2024/03/23 10:39:40;;;;;;;6.53;0.70;;;8.20;99.90;;;;;;6150799;23;20157;-78
2024/03/23 10:42:12;;;;;;;5.30;0.73;;;7.80;99.90;;;;;;6090749;23;20012;-81
2024/03/23 10:44:39;;;;;;;8.75;1.25;;;7.40;99.90;;;;;;6125327;23;20005;-82
2024/03/23 10:47:05;;;;;;;6.20;1.20;;;7.10;99.90;;;;;;6090625;23;20016;-81
2024/03/23 10:49:34;;;;;;;5.60;0.70;;;7.00;99.90;;;;;;6114798;23;20009;-80
2024/03/23 10:52:02;;;;;;;5.68;0.80;;;7.30;99.90;;;;;;6090389;23;20012;-80
2024/03/23 10:54:30;;;;;;;5.63;0.80;;;7.80;99.90;;;;;;6090951;23;20020;-80
2024/03/23 10:57:07;;;;;;;5.70;1.02;;;8.50;99.90;;;;;;6115119;23;20130;-80
2024/03/23 10:59:39;;;;;;;5.15;0.95;;;9.30;99.90;;;;;;6138309;23;20012;-80
2024/03/23 11:02:08;;;;;;;8.98;1.00;;;9.60;99.90;;;;;;6115017;23;20032;-81
2024/03/23 11:04:38;;;;;;;8.90;1.10;;;9.80;99.90;;;;;;6114309;23;20009;-80
2024/03/23 11:07:24;;;;;;;8.10;1.15;;;9.80;99.90;;;;;;6089289;23;20020;-82
2024/03/23 11:09:52;;;;;;;10.57;1.40;;;9.80;99.90;;;;;;6089645;23;20020;-81
2024/03/23 11:12:22;;;;;;;10.20;1.08;;;9.80;99.90;;;;;;6089922;23;20013;-80
2024/03/23 11:15:11;;;;;;;6.88;1.10;;;9.90;99.90;;;;;;6114709;23;20020;-80
2024/03/23 11:17:37;;;;;;;7.75;1.25;;;10.30;99.90;;;;;;6148242;23;20008;-81
2024/03/23 11:20:05;;;;;;;7.55;1.20;;;10.70;99.90;;;;;;6114306;23;20005;-78
2024/03/23 11:22:48;;;;;;;11.48;1.67;;;10.80;99.90;;;;;;6090638;23;20408;-78
2024/03/23 11:25:23;;;;;;;6.25;0.68;;;11.10;99.90;;;;;;6089977;23;20001;-83
2024/03/23 11:27:55;;;;;;;7.05;0.82;;;11.70;99.90;;;;;;6125507;23;20020;-82
2024/03/23 11:30:22;;;;;;;7.22;0.88;;;12.50;99.90;;;;;;6139444;23;20016;-77
2024/03/23 11:32:54;;;;;;;6.10;0.50;;;13.00;99.90;;;;;;6149671;23;20287;-80
2024/03/23 11:35:27;;;;;;;2.38;0.40;;;12.70;99.90;;;;;;6117021;23;20344;-82
2024/03/23 11:38:06;;;;;;;3.92;0.57;;;11.70;99.90;;;;;;6115319;23;20005;-81
2024/03/23 11:40:34;;;;;;;4.18;0.60;;;10.90;99.90;;;;;;6176211;23;20318;-76
2024/03/23 11:43:03;;;;;;;4.40;0.50;;;10.50;99.90;;;;;;6090288;23;20075;-80
2024/03/23 11:45:37;;;;;;;5.35;0.77;;;10.10;99.90;;;;;;6090405;23;20016;-81
2024/03/23 11:48:12;;;;;;;4.68;0.65;;;9.80;99.90;;;;;;6089875;23;20009;-80
2024/03/23 11:50:40;;;;;;;8.10;1.15;;;9.60;99.90;;;;;;6138927;23;20012;-80
2024/03/23 11:53:12;;;;;;;6.35;0.90;;;10.00;99.90;;;;;;6150994;23;20237;-78
2024/03/23 11:55:48;;;;;;;8.63;0.90;;;10.90;99.90;;;;;;6090242;23;20059;-76
2024/03/23 11:58:15;;;;;;;8.60;0.93;;;12.00;99.90;;;;;;6090406;23;20009;-78
2024/03/23 12:00:43;;;;;;;7.55;1.23;;;13.00;99.90;;;;;;6148657;23;20025;-78
2024/03/23 12:03:10;;;;;;;4.55;0.63;;;13.50;99.90;;;;;;6115354;23;20462;-79
2024/03/23 12:05:38;;;;;;;7.32;0.70;;;13.60;99.90;;;;;;6176096;23;20012;-87
2024/03/23 12:08:31;;;;;;;5.90;1.02;;;13.20;99.90;;;;;;6151037;23;20837;-78
2024/03/23 12:11:07;;;;;;;;;;;12.50;99.90;;;;;;6089751;23;20194;-82
2024/03/23 12:13:33;;;;;;;8.70;0.80;;;11.70;99.90;;;;;;6139511;23;19912;-83
2024/03/23 12:16:14;;;;;;;4.47;0.50;;;11.50;99.90;;;;;;6090177;23;20378;-83
2024/03/23 12:18:44;;;;;;;5.72;0.50;;;11.10;99.90;;;;;;6149367;23;20190;-81
2024/03/23 12:21:11;;;;;;;5.57;0.50;;;11.20;99.90;;;;;;6123975;23;20838;-80
2024/03/23 12:23:40;;;;;;;11.90;5.85;;;11.50;99.90;;;;;;6115412;23;20840;-83
2024/03/23 12:26:06;;;;;;;7.25;1.08;;;11.20;99.90;;;;;;6089425;23;20446;-81
2024/03/23 12:28:33;;;;;;;5.13;0.50;;;10.70;99.90;;;;;;6115103;23;20425;-83
2024/03/23 12:30:59;;;;;;;6.80;0.65;;;10.30;99.90;;;;;;6113569;23;20014;-84
2024/03/23 12:33:26;;;;;;;4.68;0.68;;;10.20;99.90;;;;;;6088858;23;20009;-83
2024/03/23 12:35:53;;;;;;;2.72;0.40;;;10.70;99.90;;;;;;6137666;23;20021;-80
2024/03/23 12:38:20;;;;;;;8.25;0.60;;;11.50;99.90;;;;;;6114321;23;20349;-83
2024/03/23 12:40:50;;;;;;;5.30;0.60;;;12.20;99.90;;;;;;6148159;23;20381;-82
2024/03/23 12:43:17;;;;;;;8.52;0.95;;;12.60;99.90;;;;;;6124824;23;20016;-81
2024/03/23 12:45:47;;;;;;;3.85;0.63;;;12.50;99.90;;;;;;6149323;23;20486;-79
2024/03/23 12:48:14;;;;;;;10.35;1.10;;;12.30;99.90;;;;;;6089951;23;20021;-79
2024/03/23 12:50:40;;;;;;;7.57;0.80;;;12.30;99.90;;;;;;6089567;23;20012;-84